sensor_id;sensor_type;location;lat;lon;timestamp;P1;durP1;ratioP1;P2;durP2;ratioP2
46439;SDS011;32138;50.966;6.968;2023-04-25T00:00:28;12.45;;;4.68;;
46439;SDS011;32138;50.966;6.968;2023-04-25T00:01:29;13.82;;;4.95;;
46439;SDS011;32138;50.966;6.968;2023-04-25T00:02:30;13.65;;;4.95;;
46439;SDS011;32138;50.966;6.968;2023-04-25T00:03:32;10.95;;;5.25;;
46439;SDS011;32138;50.966;6.968;2023-04-25T00:04:32;12.43;;;5.72;;
46439;SDS011;32138;50.966;6.968;2023-04-25T00:05:33;14.65;;;5.57;;
46439;SDS011;32138;50.966;6.968;2023-04-25T00:06:37;12.35;;;4.88;;
46439;SDS011;32138;50.966;6.968;2023-04-25T00:07:38;12.75;;;5.32;;
46439;SDS011;32138;50.966;6.968;2023-04-25T00:08:39;12.80;;;4.82;;
46439;SDS011;32138;50.966;6.968;2023-04-25T00:09:40;10.23;;;4.70;;
46439;SDS011;32138;50.966;6.968;2023-04-25T00:10:41;13.55;;;5.18;;
46439;SDS011;32138;50.966;6.968;2023-04-25T00:11:42;14.88;;;6.15;;
46439;SDS011;32138;50.966;6.968;2023-04-25T00:12:43;13.80;;;4.95;;
46439;SDS011;32138;50.966;6.968;2023-04-25T00:13:45;11.88;;;4.72;;
46439;SDS011;32138;50.966;6.968;2023-04-25T00:14:46;12.73;;;5.60;;
46439;SDS011;32138;50.966;6.968;2023-04-25T00:15:47;13.32;;;5.32;;
46439;SDS011;32138;50.966;6.968;2023-04-25T00:16:48;12.00;;;4.93;;
46439;SDS011;32138;50.966;6.968;2023-04-25T00:17:51;17.35;;;4.80;;
46439;SDS011;32138;50.966;6.968;2023-04-25T00:18:52;10.73;;;4.65;;
46439;SDS011;32138;50.966;6.968;2023-04-25T00:19:53;18.38;;;5.03;;
46439;SDS011;32138;50.966;6.968;2023-04-25T00:20:54;13.40;;;5.43;;
46439;SDS011;32138;50.966;6.968;2023-04-25T00:21:56;8.98;;;5.60;;
46439;SDS011;32138;50.966;6.968;2023-04-25T00:22:56;10.93;;;4.78;;
46439;SDS011;32138;50.966;6.968;2023-04-25T00:23:57;14.18;;;4.85;;
46439;SDS011;32138;50.966;6.968;2023-04-25T00:24:58;9.38;;;5.05;;
46439;SDS011;32138;50.966;6.968;2023-04-25T00:26:00;10.90;;;4.70;;
46439;SDS011;32138;50.966;6.968;2023-04-25T00:27:00;11.75;;;5.07;;
46439;SDS011;32138;50.966;6.968;2023-04-25T00:28:01;16.80;;;5.68;;
46439;SDS011;32138;50.966;6.968;2023-04-25T00:29:02;12.27;;;6.05;;
46439;SDS011;32138;50.966;6.968;2023-04-25T00:30:03;13.13;;;5.40;;
46439;SDS011;32138;50.966;6.968;2023-04-25T00:31:04;14.13;;;5.40;;
46439;SDS011;32138;50.966;6.968;2023-04-25T00:32:05;13.02;;;5.78;;
46439;SDS011;32138;50.966;6.968;2023-04-25T00:33:06;13.73;;;5.65;;
46439;SDS011;32138;50.966;6.968;2023-04-25T00:34:07;19.60;;;5.82;;
46439;SDS011;32138;50.966;6.968;2023-04-25T00:35:08;12.50;;;5.22;;
46439;SDS011;32138;50.966;6.968;2023-04-25T00:36:09;13.65;;;5.10;;
46439;SDS011;32138;50.966;6.968;2023-04-25T00:37:11;12.75;;;5.60;;
46439;SDS011;32138;50.966;6.968;2023-04-25T00:38:12;12.52;;;5.30;;
46439;SDS011;32138;50.966;6.968;2023-04-25T00:39:13;13.70;;;5.43;;
46439;SDS011;32138;50.966;6.968;2023-04-25T00:40:14;12.13;;;4.85;;
46439;SDS011;32138;50.966;6.968;2023-04-25T00:41:15;10.80;;;4.75;;
46439;SDS011;32138;50.966;6.968;2023-04-25T00:42:15;12.50;;;5.00;;
46439;SDS011;32138;50.966;6.968;2023-04-25T00:43:16;18.25;;;4.90;;
46439;SDS011;32138;50.966;6.968;2023-04-25T00:44:17;10.75;;;4.57;;
46439;SDS011;32138;50.966;6.968;2023-04-25T00:45:18;13.77;;;4.82;;
46439;SDS011;32138;50.966;6.968;2023-04-25T00:46:19;12.68;;;4.75;;
46439;SDS011;32138;50.966;6.968;2023-04-25T00:47:20;17.92;;;5.45;;
46439;SDS011;32138;50.966;6.968;2023-04-25T00:48:21;9.40;;;4.97;;
46439;SDS011;32138;50.966;6.968;2023-04-25T00:49:23;11.65;;;4.82;;
46439;SDS011;32138;50.966;6.968;2023-04-25T00:50:24;14.18;;;5.43;;
46439;SDS011;32138;50.966;6.968;2023-04-25T00:51:25;13.07;;;5.78;;
46439;SDS011;32138;50.966;6.968;2023-04-25T00:52:26;13.27;;;5.20;;
46439;SDS011;32138;50.966;6.968;2023-04-25T00:53:27;16.40;;;5.55;;
46439;SDS011;32138;50.966;6.968;2023-04-25T00:54:29;14.55;;;5.82;;
46439;SDS011;32138;50.966;6.968;2023-04-25T00:55:30;12.55;;;4.70;;
46439;SDS011;32138;50.966;6.968;2023-04-25T00:56:32;16.08;;;5.05;;
46439;SDS011;32138;50.966;6.968;2023-04-25T00:57:33;13.80;;;4.88;;
46439;SDS011;32138;50.966;6.968;2023-04-25T00:58:34;20.73;;;6.03;;
46439;SDS011;32138;50.966;6.968;2023-04-25T00:59:36;15.50;;;5.97;;
46439;SDS011;32138;50.966;6.968;2023-04-25T01:00:38;15.02;;;5.78;;
46439;SDS011;32138;50.966;6.968;2023-04-25T01:01:41;16.58;;;5.97;;
46439;SDS011;32138;50.966;6.968;2023-04-25T01:02:42;16.58;;;6.82;;
46439;SDS011;32138;50.966;6.968;2023-04-25T01:03:44;16.38;;;6.55;;
46439;SDS011;32138;50.966;6.968;2023-04-25T01:04:47;15.35;;;6.43;;
46439;SDS011;32138;50.966;6.968;2023-04-25T01:05:48;16.55;;;6.65;;
46439;SDS011;32138;50.966;6.968;2023-04-25T01:06:50;16.83;;;7.15;;
46439;SDS011;32138;50.966;6.968;2023-04-25T01:07:51;16.25;;;7.20;;
46439;SDS011;32138;50.966;6.968;2023-04-25T01:08:52;14.15;;;6.70;;
46439;SDS011;32138;50.966;6.968;2023-04-25T01:09:53;14.95;;;6.05;;
46439;SDS011;32138;50.966;6.968;2023-04-25T01:10:54;13.07;;;5.65;;
46439;SDS011;32138;50.966;6.968;2023-04-25T01:11:55;16.05;;;6.50;;
46439;SDS011;32138;50.966;6.968;2023-04-25T01:12:57;19.60;;;5.65;;
46439;SDS011;32138;50.966;6.968;2023-04-25T01:13:58;16.27;;;5.55;;
46439;SDS011;32138;50.966;6.968;2023-04-25T01:14:59;15.82;;;6.82;;
46439;SDS011;32138;50.966;6.968;2023-04-25T01:16:00;17.65;;;7.18;;
46439;SDS011;32138;50.966;6.968;2023-04-25T01:17:02;14.57;;;5.90;;
46439;SDS011;32138;50.966;6.968;2023-04-25T01:18:04;16.67;;;6.50;;
46439;SDS011;32138;50.966;6.968;2023-04-25T01:19:09;14.95;;;6.45;;
46439;SDS011;32138;50.966;6.968;2023-04-25T01:20:13;13.45;;;6.28;;
46439;SDS011;32138;50.966;6.968;2023-04-25T01:21:14;19.52;;;6.45;;
46439;SDS011;32138;50.966;6.968;2023-04-25T01:22:15;19.10;;;6.70;;
46439;SDS011;32138;50.966;6.968;2023-04-25T01:23:16;16.38;;;6.20;;
46439;SDS011;32138;50.966;6.968;2023-04-25T01:24:19;13.32;;;6.53;;
46439;SDS011;32138;50.966;6.968;2023-04-25T01:25:21;15.40;;;6.72;;
46439;SDS011;32138;50.966;6.968;2023-04-25T01:26:23;15.65;;;6.20;;
46439;SDS011;32138;50.966;6.968;2023-04-25T01:27:24;16.15;;;6.00;;
46439;SDS011;32138;50.966;6.968;2023-04-25T01:28:26;12.00;;;4.93;;
46439;SDS011;32138;50.966;6.968;2023-04-25T01:29:28;21.20;;;6.18;;
46439;SDS011;32138;50.966;6.968;2023-04-25T01:30:29;14.73;;;5.95;;
46439;SDS011;32138;50.966;6.968;2023-04-25T01:31:30;14.02;;;5.68;;
46439;SDS011;32138;50.966;6.968;2023-04-25T01:32:32;17.30;;;5.82;;
46439;SDS011;32138;50.966;6.968;2023-04-25T01:33:39;17.25;;;5.40;;
46439;SDS011;32138;50.966;6.968;2023-04-25T01:34:40;14.27;;;5.10;;
46439;SDS011;32138;50.966;6.968;2023-04-25T01:35:41;16.90;;;6.43;;
46439;SDS011;32138;50.966;6.968;2023-04-25T01:36:42;13.30;;;5.68;;
46439;SDS011;32138;50.966;6.968;2023-04-25T01:37:43;13.05;;;5.40;;
46439;SDS011;32138;50.966;6.968;2023-04-25T01:38:45;17.45;;;6.13;;
46439;SDS011;32138;50.966;6.968;2023-04-25T01:39:47;17.70;;;5.50;;
46439;SDS011;32138;50.966;6.968;2023-04-25T01:40:48;13.30;;;4.93;;
46439;SDS011;32138;50.966;6.968;2023-04-25T01:41:52;11.50;;;5.93;;
46439;SDS011;32138;50.966;6.968;2023-04-25T01:42:52;13.27;;;5.10;;
46439;SDS011;32138;50.966;6.968;2023-04-25T01:43:54;16.67;;;5.60;;
46439;SDS011;32138;50.966;6.968;2023-04-25T01:44:55;15.73;;;5.85;;
46439;SDS011;32138;50.966;6.968;2023-04-25T01:45:56;20.48;;;5.78;;
46439;SDS011;32138;50.966;6.968;2023-04-25T01:46:57;14.25;;;5.90;;
46439;SDS011;32138;50.966;6.968;2023-04-25T01:47:58;17.15;;;6.00;;
46439;SDS011;32138;50.966;6.968;2023-04-25T01:48:59;15.32;;;6.47;;
46439;SDS011;32138;50.966;6.968;2023-04-25T01:50:01;15.88;;;6.30;;
46439;SDS011;32138;50.966;6.968;2023-04-25T01:51:02;13.48;;;4.85;;
46439;SDS011;32138;50.966;6.968;2023-04-25T01:52:04;14.13;;;5.88;;
46439;SDS011;32138;50.966;6.968;2023-04-25T01:53:04;15.60;;;5.10;;
46439;SDS011;32138;50.966;6.968;2023-04-25T01:54:06;20.20;;;6.22;;
46439;SDS011;32138;50.966;6.968;2023-04-25T01:55:08;14.02;;;6.00;;
46439;SDS011;32138;50.966;6.968;2023-04-25T01:56:09;15.80;;;7.22;;
46439;SDS011;32138;50.966;6.968;2023-04-25T01:57:13;17.23;;;6.18;;
46439;SDS011;32138;50.966;6.968;2023-04-25T01:58:14;17.75;;;5.50;;
46439;SDS011;32138;50.966;6.968;2023-04-25T01:59:15;15.35;;;5.45;;
46439;SDS011;32138;50.966;6.968;2023-04-25T02:00:16;14.90;;;6.10;;
46439;SDS011;32138;50.966;6.968;2023-04-25T02:01:17;15.20;;;6.28;;
46439;SDS011;32138;50.966;6.968;2023-04-25T02:02:17;11.38;;;5.93;;
46439;SDS011;32138;50.966;6.968;2023-04-25T02:03:18;13.52;;;5.25;;
46439;SDS011;32138;50.966;6.968;2023-04-25T02:04:19;14.43;;;5.97;;
46439;SDS011;32138;50.966;6.968;2023-04-25T02:05:19;13.95;;;5.60;;
46439;SDS011;32138;50.966;6.968;2023-04-25T02:06:20;11.60;;;5.18;;
46439;SDS011;32138;50.966;6.968;2023-04-25T02:07:21;13.75;;;5.65;;
46439;SDS011;32138;50.966;6.968;2023-04-25T02:08:22;13.35;;;5.82;;
46439;SDS011;32138;50.966;6.968;2023-04-25T02:09:23;18.00;;;7.13;;
46439;SDS011;32138;50.966;6.968;2023-04-25T02:10:23;19.48;;;5.22;;
46439;SDS011;32138;50.966;6.968;2023-04-25T02:11:24;12.48;;;5.28;;
46439;SDS011;32138;50.966;6.968;2023-04-25T02:12:26;15.80;;;5.93;;
46439;SDS011;32138;50.966;6.968;2023-04-25T02:13:27;13.05;;;5.75;;
46439;SDS011;32138;50.966;6.968;2023-04-25T02:14:28;23.05;;;5.47;;
46439;SDS011;32138;50.966;6.968;2023-04-25T02:15:29;13.85;;;5.55;;
46439;SDS011;32138;50.966;6.968;2023-04-25T02:16:30;15.15;;;5.68;;
46439;SDS011;32138;50.966;6.968;2023-04-25T02:17:31;14.52;;;6.28;;
46439;SDS011;32138;50.966;6.968;2023-04-25T02:18:32;12.60;;;5.70;;
46439;SDS011;32138;50.966;6.968;2023-04-25T02:19:33;15.95;;;5.20;;
46439;SDS011;32138;50.966;6.968;2023-04-25T02:20:34;17.60;;;5.85;;
46439;SDS011;32138;50.966;6.968;2023-04-25T02:21:34;18.25;;;5.88;;
46439;SDS011;32138;50.966;6.968;2023-04-25T02:22:35;13.15;;;6.40;;
46439;SDS011;32138;50.966;6.968;2023-04-25T02:23:36;14.68;;;5.80;;
46439;SDS011;32138;50.966;6.968;2023-04-25T02:24:37;11.73;;;5.53;;
46439;SDS011;32138;50.966;6.968;2023-04-25T02:25:39;12.57;;;5.18;;
46439;SDS011;32138;50.966;6.968;2023-04-25T02:26:39;12.95;;;5.47;;
46439;SDS011;32138;50.966;6.968;2023-04-25T02:27:40;10.52;;;5.13;;
46439;SDS011;32138;50.966;6.968;2023-04-25T02:28:41;17.20;;;6.03;;
46439;SDS011;32138;50.966;6.968;2023-04-25T02:29:42;15.15;;;5.72;;
46439;SDS011;32138;50.966;6.968;2023-04-25T02:30:42;16.25;;;5.60;;
46439;SDS011;32138;50.966;6.968;2023-04-25T02:31:43;17.30;;;5.95;;
46439;SDS011;32138;50.966;6.968;2023-04-25T02:32:44;16.50;;;6.25;;
46439;SDS011;32138;50.966;6.968;2023-04-25T02:33:45;14.20;;;6.40;;
46439;SDS011;32138;50.966;6.968;2023-04-25T02:34:46;13.15;;;6.20;;
46439;SDS011;32138;50.966;6.968;2023-04-25T02:35:47;15.50;;;5.15;;
46439;SDS011;32138;50.966;6.968;2023-04-25T02:36:48;15.18;;;5.35;;
46439;SDS011;32138;50.966;6.968;2023-04-25T02:37:50;14.32;;;5.90;;
46439;SDS011;32138;50.966;6.968;2023-04-25T02:38:52;19.90;;;5.82;;
46439;SDS011;32138;50.966;6.968;2023-04-25T02:39:53;13.55;;;4.78;;
46439;SDS011;32138;50.966;6.968;2023-04-25T02:40:54;11.27;;;4.82;;
46439;SDS011;32138;50.966;6.968;2023-04-25T02:41:54;11.98;;;4.88;;
46439;SDS011;32138;50.966;6.968;2023-04-25T02:42:55;15.23;;;5.03;;
46439;SDS011;32138;50.966;6.968;2023-04-25T02:43:56;10.80;;;4.35;;
46439;SDS011;32138;50.966;6.968;2023-04-25T02:44:57;12.88;;;4.88;;
46439;SDS011;32138;50.966;6.968;2023-04-25T02:45:57;14.68;;;4.88;;
46439;SDS011;32138;50.966;6.968;2023-04-25T02:46:58;16.73;;;5.05;;
46439;SDS011;32138;50.966;6.968;2023-04-25T02:47:59;10.90;;;5.05;;
46439;SDS011;32138;50.966;6.968;2023-04-25T02:49:00;11.68;;;4.57;;
46439;SDS011;32138;50.966;6.968;2023-04-25T02:50:00;13.70;;;4.68;;
46439;SDS011;32138;50.966;6.968;2023-04-25T02:51:01;13.70;;;3.80;;
46439;SDS011;32138;50.966;6.968;2023-04-25T02:52:02;11.32;;;4.47;;
46439;SDS011;32138;50.966;6.968;2023-04-25T02:53:03;12.15;;;4.40;;
46439;SDS011;32138;50.966;6.968;2023-04-25T02:54:04;12.10;;;4.45;;
46439;SDS011;32138;50.966;6.968;2023-04-25T02:55:06;13.80;;;4.35;;
46439;SDS011;32138;50.966;6.968;2023-04-25T02:56:07;11.07;;;4.93;;
46439;SDS011;32138;50.966;6.968;2023-04-25T02:57:08;9.70;;;3.85;;
46439;SDS011;32138;50.966;6.968;2023-04-25T02:58:09;12.02;;;4.65;;
46439;SDS011;32138;50.966;6.968;2023-04-25T02:59:10;10.30;;;4.07;;
46439;SDS011;32138;50.966;6.968;2023-04-25T03:00:11;9.25;;;4.30;;
46439;SDS011;32138;50.966;6.968;2023-04-25T03:01:14;12.30;;;4.10;;
46439;SDS011;32138;50.966;6.968;2023-04-25T03:02:14;13.40;;;4.75;;
46439;SDS011;32138;50.966;6.968;2023-04-25T03:03:15;11.43;;;3.75;;
46439;SDS011;32138;50.966;6.968;2023-04-25T03:04:21;9.65;;;4.22;;
46439;SDS011;32138;50.966;6.968;2023-04-25T03:05:23;10.05;;;3.53;;
46439;SDS011;32138;50.966;6.968;2023-04-25T03:06:24;8.55;;;4.35;;
46439;SDS011;32138;50.966;6.968;2023-04-25T03:07:25;7.97;;;3.63;;
46439;SDS011;32138;50.966;6.968;2023-04-25T03:08:26;11.50;;;4.57;;
46439;SDS011;32138;50.966;6.968;2023-04-25T03:09:30;10.35;;;3.55;;
46439;SDS011;32138;50.966;6.968;2023-04-25T03:10:31;9.68;;;3.97;;
46439;SDS011;32138;50.966;6.968;2023-04-25T03:11:32;13.77;;;4.63;;
46439;SDS011;32138;50.966;6.968;2023-04-25T03:12:33;11.50;;;3.53;;
46439;SDS011;32138;50.966;6.968;2023-04-25T03:13:33;13.13;;;3.63;;
46439;SDS011;32138;50.966;6.968;2023-04-25T03:14:34;6.47;;;3.20;;
46439;SDS011;32138;50.966;6.968;2023-04-25T03:15:35;10.85;;;3.42;;
46439;SDS011;32138;50.966;6.968;2023-04-25T03:16:37;15.02;;;4.57;;
46439;SDS011;32138;50.966;6.968;2023-04-25T03:17:38;12.80;;;4.18;;
46439;SDS011;32138;50.966;6.968;2023-04-25T03:18:38;14.95;;;4.55;;
46439;SDS011;32138;50.966;6.968;2023-04-25T03:19:39;12.20;;;3.90;;
46439;SDS011;32138;50.966;6.968;2023-04-25T03:20:40;10.60;;;3.90;;
46439;SDS011;32138;50.966;6.968;2023-04-25T03:21:41;10.55;;;4.18;;
46439;SDS011;32138;50.966;6.968;2023-04-25T03:22:42;11.73;;;4.55;;
46439;SDS011;32138;50.966;6.968;2023-04-25T03:23:44;10.88;;;3.70;;
46439;SDS011;32138;50.966;6.968;2023-04-25T03:24:45;9.10;;;4.22;;
46439;SDS011;32138;50.966;6.968;2023-04-25T03:25:46;8.90;;;4.25;;
46439;SDS011;32138;50.966;6.968;2023-04-25T03:26:47;8.55;;;4.05;;
46439;SDS011;32138;50.966;6.968;2023-04-25T03:27:48;10.75;;;3.97;;
46439;SDS011;32138;50.966;6.968;2023-04-25T03:28:49;8.98;;;3.90;;
46439;SDS011;32138;50.966;6.968;2023-04-25T03:29:50;10.20;;;3.80;;
46439;SDS011;32138;50.966;6.968;2023-04-25T03:30:50;13.60;;;4.53;;
46439;SDS011;32138;50.966;6.968;2023-04-25T03:31:51;8.50;;;3.88;;
46439;SDS011;32138;50.966;6.968;2023-04-25T03:32:52;12.63;;;4.50;;
46439;SDS011;32138;50.966;6.968;2023-04-25T03:33:53;10.32;;;4.07;;
46439;SDS011;32138;50.966;6.968;2023-04-25T03:34:53;13.98;;;4.90;;
46439;SDS011;32138;50.966;6.968;2023-04-25T03:35:55;9.70;;;4.00;;
46439;SDS011;32138;50.966;6.968;2023-04-25T03:36:55;12.07;;;4.30;;
46439;SDS011;32138;50.966;6.968;2023-04-25T03:37:56;12.95;;;4.90;;
46439;SDS011;32138;50.966;6.968;2023-04-25T03:38:57;9.80;;;4.38;;
46439;SDS011;32138;50.966;6.968;2023-04-25T03:39:57;14.10;;;5.63;;
46439;SDS011;32138;50.966;6.968;2023-04-25T03:40:58;11.43;;;6.28;;
46439;SDS011;32138;50.966;6.968;2023-04-25T03:42:00;12.95;;;6.30;;
46439;SDS011;32138;50.966;6.968;2023-04-25T03:43:02;14.02;;;7.03;;
46439;SDS011;32138;50.966;6.968;2023-04-25T03:44:03;12.48;;;5.97;;
46439;SDS011;32138;50.966;6.968;2023-04-25T03:45:04;14.77;;;6.53;;
46439;SDS011;32138;50.966;6.968;2023-04-25T03:46:06;14.48;;;7.05;;
46439;SDS011;32138;50.966;6.968;2023-04-25T03:47:06;16.25;;;8.07;;
46439;SDS011;32138;50.966;6.968;2023-04-25T03:48:07;15.18;;;7.57;;
46439;SDS011;32138;50.966;6.968;2023-04-25T03:49:08;18.05;;;7.60;;
46439;SDS011;32138;50.966;6.968;2023-04-25T03:50:09;12.45;;;6.30;;
46439;SDS011;32138;50.966;6.968;2023-04-25T03:51:10;15.90;;;6.57;;
46439;SDS011;32138;50.966;6.968;2023-04-25T03:52:10;13.07;;;6.15;;
46439;SDS011;32138;50.966;6.968;2023-04-25T03:53:11;13.25;;;6.25;;
46439;SDS011;32138;50.966;6.968;2023-04-25T03:54:12;14.07;;;5.30;;
46439;SDS011;32138;50.966;6.968;2023-04-25T03:55:13;14.50;;;4.97;;
46439;SDS011;32138;50.966;6.968;2023-04-25T03:56:13;13.77;;;5.22;;
46439;SDS011;32138;50.966;6.968;2023-04-25T03:57:14;14.70;;;4.97;;
46439;SDS011;32138;50.966;6.968;2023-04-25T03:58:15;14.75;;;5.05;;
46439;SDS011;32138;50.966;6.968;2023-04-25T03:59:16;13.75;;;4.97;;
46439;SDS011;32138;50.966;6.968;2023-04-25T04:00:16;11.38;;;4.75;;
46439;SDS011;32138;50.966;6.968;2023-04-25T04:01:17;10.43;;;4.97;;
46439;SDS011;32138;50.966;6.968;2023-04-25T04:02:18;9.32;;;4.90;;
46439;SDS011;32138;50.966;6.968;2023-04-25T04:03:19;13.07;;;5.57;;
46439;SDS011;32138;50.966;6.968;2023-04-25T04:04:20;20.65;;;7.00;;
46439;SDS011;32138;50.966;6.968;2023-04-25T04:05:21;11.32;;;5.32;;
46439;SDS011;32138;50.966;6.968;2023-04-25T04:06:22;12.38;;;5.00;;
46439;SDS011;32138;50.966;6.968;2023-04-25T04:07:22;15.95;;;6.45;;
46439;SDS011;32138;50.966;6.968;2023-04-25T04:08:23;12.50;;;5.72;;
46439;SDS011;32138;50.966;6.968;2023-04-25T04:09:24;12.70;;;5.75;;
46439;SDS011;32138;50.966;6.968;2023-04-25T04:10:25;11.02;;;5.22;;
46439;SDS011;32138;50.966;6.968;2023-04-25T04:11:26;14.75;;;5.07;;
46439;SDS011;32138;50.966;6.968;2023-04-25T04:12:27;12.70;;;5.30;;
46439;SDS011;32138;50.966;6.968;2023-04-25T04:13:28;15.70;;;5.45;;
46439;SDS011;32138;50.966;6.968;2023-04-25T04:14:29;14.80;;;5.40;;
46439;SDS011;32138;50.966;6.968;2023-04-25T04:15:30;14.95;;;5.30;;
46439;SDS011;32138;50.966;6.968;2023-04-25T04:16:33;14.60;;;5.45;;
46439;SDS011;32138;50.966;6.968;2023-04-25T04:17:33;15.10;;;5.72;;
46439;SDS011;32138;50.966;6.968;2023-04-25T04:18:34;13.40;;;4.97;;
46439;SDS011;32138;50.966;6.968;2023-04-25T04:19:35;14.18;;;5.65;;
46439;SDS011;32138;50.966;6.968;2023-04-25T04:20:36;10.00;;;5.10;;
46439;SDS011;32138;50.966;6.968;2023-04-25T04:21:37;13.23;;;6.28;;
46439;SDS011;32138;50.966;6.968;2023-04-25T04:22:37;15.65;;;5.55;;
46439;SDS011;32138;50.966;6.968;2023-04-25T04:23:38;13.40;;;5.90;;
46439;SDS011;32138;50.966;6.968;2023-04-25T04:24:39;16.02;;;5.70;;
46439;SDS011;32138;50.966;6.968;2023-04-25T04:25:40;16.17;;;6.82;;
46439;SDS011;32138;50.966;6.968;2023-04-25T04:26:41;15.70;;;6.93;;
46439;SDS011;32138;50.966;6.968;2023-04-25T04:27:44;14.18;;;6.80;;
46439;SDS011;32138;50.966;6.968;2023-04-25T04:28:46;13.13;;;5.97;;
46439;SDS011;32138;50.966;6.968;2023-04-25T04:29:46;16.83;;;6.50;;
46439;SDS011;32138;50.966;6.968;2023-04-25T04:30:47;16.15;;;7.35;;
46439;SDS011;32138;50.966;6.968;2023-04-25T04:31:51;16.25;;;6.50;;
46439;SDS011;32138;50.966;6.968;2023-04-25T04:32:52;16.65;;;6.78;;
46439;SDS011;32138;50.966;6.968;2023-04-25T04:33:53;14.07;;;6.28;;
46439;SDS011;32138;50.966;6.968;2023-04-25T04:34:53;16.85;;;6.50;;
46439;SDS011;32138;50.966;6.968;2023-04-25T04:35:55;15.45;;;6.57;;
46439;SDS011;32138;50.966;6.968;2023-04-25T04:36:56;13.35;;;6.53;;
46439;SDS011;32138;50.966;6.968;2023-04-25T04:37:57;17.88;;;7.47;;
46439;SDS011;32138;50.966;6.968;2023-04-25T04:38:58;18.95;;;6.55;;
46439;SDS011;32138;50.966;6.968;2023-04-25T04:39:58;13.57;;;7.00;;
46439;SDS011;32138;50.966;6.968;2023-04-25T04:40:59;15.80;;;7.18;;
46439;SDS011;32138;50.966;6.968;2023-04-25T04:42:00;15.27;;;5.97;;
46439;SDS011;32138;50.966;6.968;2023-04-25T04:43:04;15.48;;;6.47;;
46439;SDS011;32138;50.966;6.968;2023-04-25T04:44:05;16.52;;;6.75;;
46439;SDS011;32138;50.966;6.968;2023-04-25T04:45:10;13.10;;;6.15;;
46439;SDS011;32138;50.966;6.968;2023-04-25T04:46:11;16.20;;;7.57;;
46439;SDS011;32138;50.966;6.968;2023-04-25T04:47:12;18.67;;;8.00;;
46439;SDS011;32138;50.966;6.968;2023-04-25T04:48:14;19.23;;;7.72;;
46439;SDS011;32138;50.966;6.968;2023-04-25T04:49:14;18.17;;;7.47;;
46439;SDS011;32138;50.966;6.968;2023-04-25T04:50:15;20.52;;;7.63;;
46439;SDS011;32138;50.966;6.968;2023-04-25T04:51:16;13.80;;;7.07;;
46439;SDS011;32138;50.966;6.968;2023-04-25T04:52:17;15.05;;;6.95;;
46439;SDS011;32138;50.966;6.968;2023-04-25T04:53:18;13.30;;;7.03;;
46439;SDS011;32138;50.966;6.968;2023-04-25T04:54:18;15.55;;;8.05;;
46439;SDS011;32138;50.966;6.968;2023-04-25T04:55:20;18.40;;;8.63;;
46439;SDS011;32138;50.966;6.968;2023-04-25T04:56:20;17.80;;;8.00;;
46439;SDS011;32138;50.966;6.968;2023-04-25T04:57:23;16.90;;;8.40;;
46439;SDS011;32138;50.966;6.968;2023-04-25T04:58:24;16.17;;;7.78;;
46439;SDS011;32138;50.966;6.968;2023-04-25T04:59:25;17.85;;;6.75;;
46439;SDS011;32138;50.966;6.968;2023-04-25T05:00:26;15.23;;;7.13;;
46439;SDS011;32138;50.966;6.968;2023-04-25T05:01:27;18.90;;;8.27;;
46439;SDS011;32138;50.966;6.968;2023-04-25T05:02:29;15.77;;;8.07;;
46439;SDS011;32138;50.966;6.968;2023-04-25T05:03:30;16.08;;;7.60;;
46439;SDS011;32138;50.966;6.968;2023-04-25T05:04:31;18.33;;;7.70;;
46439;SDS011;32138;50.966;6.968;2023-04-25T05:05:32;14.60;;;6.93;;
46439;SDS011;32138;50.966;6.968;2023-04-25T05:06:32;14.50;;;7.45;;
46439;SDS011;32138;50.966;6.968;2023-04-25T05:07:33;14.65;;;6.88;;
46439;SDS011;32138;50.966;6.968;2023-04-25T05:08:34;16.48;;;7.38;;
46439;SDS011;32138;50.966;6.968;2023-04-25T05:09:35;20.88;;;8.82;;
46439;SDS011;32138;50.966;6.968;2023-04-25T05:10:36;15.80;;;5.88;;
46439;SDS011;32138;50.966;6.968;2023-04-25T05:11:36;17.10;;;6.97;;
46439;SDS011;32138;50.966;6.968;2023-04-25T05:12:37;14.40;;;8.25;;
46439;SDS011;32138;50.966;6.968;2023-04-25T05:13:38;14.63;;;7.55;;
46439;SDS011;32138;50.966;6.968;2023-04-25T05:14:39;16.33;;;7.93;;
46439;SDS011;32138;50.966;6.968;2023-04-25T05:15:39;22.80;;;9.07;;
46439;SDS011;32138;50.966;6.968;2023-04-25T05:16:40;21.10;;;8.02;;
46439;SDS011;32138;50.966;6.968;2023-04-25T05:17:42;18.45;;;7.57;;
46439;SDS011;32138;50.966;6.968;2023-04-25T05:18:43;18.38;;;6.70;;
46439;SDS011;32138;50.966;6.968;2023-04-25T05:19:44;15.40;;;7.05;;
46439;SDS011;32138;50.966;6.968;2023-04-25T05:20:44;16.75;;;6.30;;
46439;SDS011;32138;50.966;6.968;2023-04-25T05:21:45;19.70;;;6.72;;
46439;SDS011;32138;50.966;6.968;2023-04-25T05:22:46;16.77;;;7.05;;
46439;SDS011;32138;50.966;6.968;2023-04-25T05:23:47;11.68;;;6.97;;
46439;SDS011;32138;50.966;6.968;2023-04-25T05:24:47;17.60;;;8.02;;
46439;SDS011;32138;50.966;6.968;2023-04-25T05:25:48;16.42;;;6.85;;
46439;SDS011;32138;50.966;6.968;2023-04-25T05:26:49;17.90;;;7.38;;
46439;SDS011;32138;50.966;6.968;2023-04-25T05:27:50;17.70;;;6.03;;
46439;SDS011;32138;50.966;6.968;2023-04-25T05:28:52;16.58;;;6.45;;
46439;SDS011;32138;50.966;6.968;2023-04-25T05:29:53;17.85;;;6.85;;
46439;SDS011;32138;50.966;6.968;2023-04-25T05:30:53;15.55;;;6.90;;
46439;SDS011;32138;50.966;6.968;2023-04-25T05:31:54;22.55;;;8.10;;
46439;SDS011;32138;50.966;6.968;2023-04-25T05:32:55;18.58;;;7.63;;
46439;SDS011;32138;50.966;6.968;2023-04-25T05:33:56;17.60;;;7.30;;
46439;SDS011;32138;50.966;6.968;2023-04-25T05:34:56;16.13;;;7.63;;
46439;SDS011;32138;50.966;6.968;2023-04-25T05:35:57;14.38;;;7.18;;
46439;SDS011;32138;50.966;6.968;2023-04-25T05:36:58;21.95;;;7.20;;
46439;SDS011;32138;50.966;6.968;2023-04-25T05:37:59;20.02;;;7.05;;
46439;SDS011;32138;50.966;6.968;2023-04-25T05:38:59;21.40;;;6.55;;
46439;SDS011;32138;50.966;6.968;2023-04-25T05:40:02;16.60;;;7.18;;
46439;SDS011;32138;50.966;6.968;2023-04-25T05:41:06;19.23;;;6.97;;
46439;SDS011;32138;50.966;6.968;2023-04-25T05:42:07;17.40;;;7.03;;
46439;SDS011;32138;50.966;6.968;2023-04-25T05:43:08;20.85;;;8.02;;
46439;SDS011;32138;50.966;6.968;2023-04-25T05:44:08;15.27;;;6.63;;
46439;SDS011;32138;50.966;6.968;2023-04-25T05:45:09;17.90;;;7.20;;
46439;SDS011;32138;50.966;6.968;2023-04-25T05:46:10;40.72;;;27.77;;
46439;SDS011;32138;50.966;6.968;2023-04-25T05:47:11;62.30;;;38.85;;
46439;SDS011;32138;50.966;6.968;2023-04-25T05:48:12;56.88;;;37.85;;
46439;SDS011;32138;50.966;6.968;2023-04-25T05:49:13;54.10;;;33.28;;
46439;SDS011;32138;50.966;6.968;2023-04-25T05:50:13;56.17;;;36.63;;
46439;SDS011;32138;50.966;6.968;2023-04-25T05:51:14;37.03;;;23.92;;
46439;SDS011;32138;50.966;6.968;2023-04-25T05:52:16;28.33;;;14.77;;
46439;SDS011;32138;50.966;6.968;2023-04-25T05:53:17;16.35;;;8.35;;
46439;SDS011;32138;50.966;6.968;2023-04-25T05:54:19;22.88;;;7.80;;
46439;SDS011;32138;50.966;6.968;2023-04-25T05:55:19;19.77;;;7.50;;
46439;SDS011;32138;50.966;6.968;2023-04-25T05:56:20;14.88;;;6.22;;
46439;SDS011;32138;50.966;6.968;2023-04-25T05:57:24;15.73;;;6.95;;
46439;SDS011;32138;50.966;6.968;2023-04-25T05:58:26;18.85;;;7.18;;
46439;SDS011;32138;50.966;6.968;2023-04-25T05:59:27;21.92;;;7.55;;
46439;SDS011;32138;50.966;6.968;2023-04-25T06:00:28;16.33;;;6.88;;
46439;SDS011;32138;50.966;6.968;2023-04-25T06:01:29;28.70;;;14.77;;
46439;SDS011;32138;50.966;6.968;2023-04-25T06:02:30;46.60;;;30.52;;
46439;SDS011;32138;50.966;6.968;2023-04-25T06:03:30;46.10;;;29.75;;